Time;durP1;ratioP1;P1;durP2;ratioP2;P2;SDS_P1;SDS_P2;PMS_P1;PMS_P2;Temp;Humidity;BMP_temperature;BMP_pressure;BME280_temperature;BME280_humidity;BME280_pressure;Samples;Min_cycle;Max_cycle;Signal;HPM_P1;HPM_P2
2023/03/20 00:01:12;;;;;;;13.15;5.38;;;;;;;;;;5115125;27;20051;-72
2023/03/20 00:03:38;;;;;;;15.52;4.93;;;;;;;;;;5098229;27;20133;-72
2023/03/20 00:06:05;;;;;;;15.25;5.30;;;;;;;;;;5098203;27;20114;-72
2023/03/20 00:08:31;;;;;;;9.50;5.28;;;;;;;;;;5096264;28;20380;-72
2023/03/20 00:10:58;;;;;;;15.23;5.22;;;;;;;;;;5123324;27;20522;-72
2023/03/20 00:13:27;;;;;;;12.98;5.60;;;;;;;;;;5114775;27;20053;-72
2023/03/20 00:15:54;;;;;;;9.23;5.22;;;;;;;;;;5114792;27;20050;-72
2023/03/20 00:18:22;;;;;;;14.18;6.35;;;;;;;;;;5114769;27;20039;-72
2023/03/20 00:20:52;;;;;;;16.90;5.40;;;;;;;;;;5132780;27;20050;-72
2023/03/20 00:23:18;;;;;;;15.00;5.95;;;;;;;;;;5112628;27;20211;-72
2023/03/20 00:25:45;;;;;;;11.10;5.47;;;;;;;;;;5114765;28;20169;-72
2023/03/20 00:28:31;;;;;;;12.45;5.75;;;;;;;;;;5114844;27;20075;-72
2023/03/20 00:30:58;;;;;;;13.20;5.43;;;;;;;;;;5083727;28;20436;-72
2023/03/20 00:33:25;;;;;;;11.57;6.03;;;;;;;;;;5114702;28;20039;-72
2023/03/20 00:35:52;;;;;;;14.05;6.10;;;;;;;;;;5097657;28;20049;-72
2023/03/20 00:38:18;;;;;;;10.55;5.47;;;;;;;;;;5123299;27;20112;-72
2023/03/20 00:40:44;;;;;;;16.80;6.38;;;;;;;;;;5097833;28;20031;-72
2023/03/20 00:43:12;;;;;;;15.70;6.15;;;;;;;;;;5097400;28;20043;-72
2023/03/20 00:45:38;;;;;;;19.98;6.13;;;;;;;;;;5114426;28;20038;-72
2023/03/20 00:48:04;;;;;;;18.67;6.10;;;;;;;;;;5114441;28;20080;-68
2023/03/20 00:50:31;;;;;;;13.68;5.60;;;;;;;;;;5114230;27;20043;-68
2023/03/20 00:52:57;;;;;;;18.35;5.93;;;;;;;;;;5114528;28;20043;-68
2023/03/20 00:55:26;;;;;;;12.75;5.63;;;;;;;;;;5114283;28;20528;-68
2023/03/20 00:57:54;;;;;;;13.35;5.75;;;;;;;;;;5130674;28;20043;-68
2023/03/20 01:00:34;;;;;;;17.90;6.47;;;;;;;;;;5114621;28;20046;-68
2023/03/20 01:03:01;;;;;;;17.10;5.75;;;;;;;;;;5114271;28;20047;-68
2023/03/20 01:05:27;;;;;;;22.85;6.80;;;;;;;;;;5097639;28;20387;-68
2023/03/20 01:07:54;;;;;;;19.88;6.38;;;;;;;;;;5114285;28;20035;-68
2023/03/20 01:10:22;;;;;;;17.90;5.80;;;;;;;;;;5114317;28;20046;-68
2023/03/20 01:12:48;;;;;;;20.70;6.68;;;;;;;;;;5114191;28;20035;-69
2023/03/20 01:15:19;;;;;;;18.45;6.25;;;;;;;;;;5113986;28;20045;-68
2023/03/20 01:17:45;;;;;;;20.75;5.68;;;;;;;;;;5114243;28;20031;-69
2023/03/20 01:20:16;;;;;;;21.40;6.22;;;;;;;;;;5114571;27;20032;-68
2023/03/20 01:22:43;;;;;;;22.85;6.38;;;;;;;;;;5100755;27;20031;-68
2023/03/20 01:25:10;;;;;;;15.68;6.18;;;;;;;;;;5118031;27;20038;-68
2023/03/20 01:27:36;;;;;;;16.35;6.25;;;;;;;;;;5117766;27;20031;-68
2023/03/20 01:30:03;;;;;;;17.05;6.90;;;;;;;;;;5118174;27;20035;-68
2023/03/20 01:32:29;;;;;;;18.90;6.25;;;;;;;;;;5117665;27;20091;-68
2023/03/20 01:34:55;;;;;;;15.02;6.45;;;;;;;;;;5117971;27;20118;-68
2023/03/20 01:37:25;;;;;;;16.83;6.40;;;;;;;;;;5118186;27;20126;-68
2023/03/20 01:39:51;;;;;;;21.25;6.53;;;;;;;;;;5117738;27;21759;-68
2023/03/20 01:42:18;;;;;;;23.23;6.85;;;;;;;;;;5114853;27;20039;-68
2023/03/20 01:44:44;;;;;;;15.73;6.43;;;;;;;;;;5100829;27;20479;-68
2023/03/20 01:47:18;;;;;;;22.00;6.40;;;;;;;;;;5117761;27;20521;-68
2023/03/20 01:50:04;;;;;;;21.42;6.88;;;;;;;;;;5100770;27;20469;-68
2023/03/20 01:52:30;;;;;;;23.25;6.53;;;;;;;;;;5077182;27;20598;-68
2023/03/20 01:54:56;;;;;;;18.92;6.47;;;;;;;;;;5117602;27;20039;-68
2023/03/20 01:57:23;;;;;;;23.55;7.38;;;;;;;;;;5100418;27;20046;-69
2023/03/20 01:59:51;;;;;;;20.60;7.25;;;;;;;;;;5117596;27;20449;-68
2023/03/20 02:02:20;;;;;;;25.92;7.15;;;;;;;;;;5117552;27;20046;-69
2023/03/20 02:04:48;;;;;;;15.85;6.93;;;;;;;;;;5117335;27;20065;-68
2023/03/20 02:07:15;;;;;;;17.98;7.18;;;;;;;;;;5117205;27;20525;-68
2023/03/20 02:09:41;;;;;;;21.35;7.68;;;;;;;;;;5116990;27;20066;-68
2023/03/20 02:12:08;;;;;;;23.42;8.93;;;;;;;;;;5117386;27;20091;-68
2023/03/20 02:14:35;;;;;;;17.80;8.10;;;;;;;;;;5100499;27;20053;-68
2023/03/20 02:17:03;;;;;;;30.05;7.93;;;;;;;;;;5116943;27;20103;-68
2023/03/20 02:19:31;;;;;;;26.40;7.82;;;;;;;;;;5116965;27;20036;-68
2023/03/20 02:22:09;;;;;;;26.33;7.32;;;;;;;;;;5116849;27;20031;-68
2023/03/20 02:24:45;;;;;;;18.85;8.18;;;;;;;;;;5117104;27;20035;-67
2023/03/20 02:27:30;;;;;;;24.35;8.35;;;;;;;;;;5116994;27;20035;-68
2023/03/20 02:30:14;;;;;;;21.15;7.82;;;;;;;;;;5116901;27;20047;-69
2023/03/20 02:32:59;;;;;;;24.05;7.97;;;;;;;;;;5099499;27;20043;-68
2023/03/20 02:35:28;;;;;;;19.42;8.23;;;;;;;;;;5115615;27;20035;-68
2023/03/20 02:37:57;;;;;;;18.83;7.55;;;;;;;;;;5115409;27;20035;-68
2023/03/20 02:40:30;;;;;;;22.33;8.35;;;;;;;;;;5115859;27;20043;-68
2023/03/20 02:42:56;;;;;;;;;;;;;;;;;;5116872;27;20099;-68
2023/03/20 02:45:27;;;;;;;17.98;7.55;;;;;;;;;;5116511;27;19969;-71
2023/03/20 02:48:04;;;;;;;20.63;7.65;;;;;;;;;;5116606;27;20044;-72
2023/03/20 02:50:36;;;;;;;22.27;7.45;;;;;;;;;;5116494;27;20031;-72
2023/03/20 02:53:07;;;;;;;20.38;7.72;;;;;;;;;;5116765;27;20035;-72
2023/03/20 02:55:39;;;;;;;17.15;7.70;;;;;;;;;;5116353;27;20081;-72
2023/03/20 02:58:11;;;;;;;18.27;7.40;;;;;;;;;;5116378;27;20074;-72
2023/03/20 03:00:46;;;;;;;18.30;7.03;;;;;;;;;;5116173;27;20035;-72
2023/03/20 03:03:37;;;;;;;21.23;7.78;;;;;;;;;;5116096;27;20107;-72
2023/03/20 03:06:09;;;;;;;19.90;7.10;;;;;;;;;;5099341;27;20514;-72
2023/03/20 03:08:37;;;;;;;18.80;6.93;;;;;;;;;;5116485;27;20038;-72
2023/03/20 03:11:07;;;;;;;13.25;7.03;;;;;;;;;;5115846;27;20510;-72
2023/03/20 03:13:36;;;;;;;14.90;6.43;;;;;;;;;;5116016;27;20435;-72
2023/03/20 03:16:06;;;;;;;16.70;7.80;;;;;;;;;;5144545;27;20523;-72
2023/03/20 03:18:34;;;;;;;18.15;7.10;;;;;;;;;;5115902;27;20588;-72
2023/03/20 03:21:02;;;;;;;13.45;6.18;;;;;;;;;;5115839;27;20495;-72
2023/03/20 03:23:28;;;;;;;21.58;8.10;;;;;;;;;;5115706;27;20467;-72
2023/03/20 03:25:56;;;;;;;12.20;6.53;;;;;;;;;;5115863;27;20137;-72
2023/03/20 03:28:40;;;;;;;16.95;7.97;;;;;;;;;;5115833;27;20482;-72
2023/03/20 03:31:09;;;;;;;17.95;7.68;;;;;;;;;;5115489;27;20697;-72
2023/03/20 03:33:37;;;;;;;13.82;7.05;;;;;;;;;;5115791;27;20501;-72
2023/03/20 03:36:03;;;;;;;21.48;7.10;;;;;;;;;;5115407;27;20482;-72
2023/03/20 03:38:31;;;;;;;16.15;7.80;;;;;;;;;;5115623;27;20035;-72
2023/03/20 03:41:06;;;;;;;16.60;8.27;;;;;;;;;;5115562;27;20084;-72
2023/03/20 03:43:41;;;;;;;20.95;7.38;;;;;;;;;;5115064;28;20031;-72
2023/03/20 03:46:10;;;;;;;18.13;7.88;;;;;;;;;;5115299;27;20553;-72
2023/03/20 03:48:39;;;;;;;19.27;7.75;;;;;;;;;;5096657;27;20144;-72
2023/03/20 03:51:08;;;;;;;19.00;8.57;;;;;;;;;;5115329;27;20035;-72
2023/03/20 03:53:37;;;;;;;21.15;9.38;;;;;;;;;;5115330;27;20042;-72
2023/03/20 03:56:05;;;;;;;20.02;8.00;;;;;;;;;;5098379;27;20092;-72
2023/03/20 03:58:35;;;;;;;17.40;8.98;;;;;;;;;;5115248;27;20032;-72
2023/03/20 04:01:02;;;;;;;23.05;9.55;;;;;;;;;;5115276;27;20130;-72
2023/03/20 04:03:31;;;;;;;24.13;10.77;;;;;;;;;;5128784;27;20143;-71
2023/03/20 04:05:58;;;;;;;26.40;11.10;;;;;;;;;;5098192;27;20070;-71
2023/03/20 04:08:24;;;;;;;24.00;10.23;;;;;;;;;;5114902;27;20035;-71
2023/03/20 04:10:50;;;;;;;27.55;11.55;;;;;;;;;;5115008;27;20511;-71
2023/03/20 04:13:17;;;;;;;27.83;11.45;;;;;;;;;;5115002;27;20038;-71
2023/03/20 04:15:43;;;;;;;33.17;13.05;;;;;;;;;;5115104;27;20051;-71
2023/03/20 04:18:18;;;;;;;29.00;12.15;;;;;;;;;;5114729;27;20037;-71
2023/03/20 04:20:46;;;;;;;30.98;12.65;;;;;;;;;;5113343;27;20071;-71
2023/03/20 04:23:12;;;;;;;26.55;11.88;;;;;;;;;;5097960;27;20035;-71
2023/03/20 04:25:38;;;;;;;32.25;12.98;;;;;;;;;;5114892;27;20034;-72
2023/03/20 04:28:05;;;;;;;22.63;12.02;;;;;;;;;;5113555;28;20482;-72
2023/03/20 04:30:31;;;;;;;24.63;13.10;;;;;;;;;;5115052;28;20051;-69
2023/03/20 04:32:57;;;;;;;37.80;15.98;;;;;;;;;;5114570;28;20050;-68
2023/03/20 04:35:23;;;;;;;34.80;13.02;;;;;;;;;;5097591;28;20060;-68
2023/03/20 04:37:49;;;;;;;30.80;13.20;;;;;;;;;;5114576;27;20047;-68
2023/03/20 04:40:15;;;;;;;32.70;12.95;;;;;;;;;;5114814;28;20031;-68
2023/03/20 04:42:41;;;;;;;28.58;12.77;;;;;;;;;;5114548;28;20088;-68
2023/03/20 04:45:08;;;;;;;33.00;13.57;;;;;;;;;;5114438;28;20027;-68
2023/03/20 04:47:34;;;;;;;27.05;12.50;;;;;;;;;;5114655;28;20031;-69
2023/03/20 04:50:00;;;;;;;25.58;12.55;;;;;;;;;;5114220;28;20032;-68
2023/03/20 04:52:26;;;;;;;32.35;12.82;;;;;;;;;;5097505;28;20027;-68
2023/03/20 04:54:52;;;;;;;34.15;13.02;;;;;;;;;;5114539;27;20479;-68
2023/03/20 04:57:19;;;;;;;29.50;12.48;;;;;;;;;;5117496;27;20054;-68
2023/03/20 04:59:45;;;;;;;27.27;11.50;;;;;;;;;;5118480;27;20043;-68
2023/03/20 05:02:13;;;;;;;31.02;11.73;;;;;;;;;;5118572;27;20051;-68
2023/03/20 05:04:40;;;;;;;24.95;11.95;;;;;;;;;;5118553;27;20047;-68
2023/03/20 05:07:06;;;;;;;31.20;12.10;;;;;;;;;;5118200;27;20041;-68
2023/03/20 05:09:32;;;;;;;27.05;12.25;;;;;;;;;;5118605;27;20398;-68
2023/03/20 05:11:58;;;;;;;27.13;11.27;;;;;;;;;;5101045;27;20070;-68
2023/03/20 05:14:25;;;;;;;32.17;13.80;;;;;;;;;;5118326;27;20042;-67
2023/03/20 05:16:51;;;;;;;29.83;12.60;;;;;;;;;;5118223;27;20057;-68
2023/03/20 05:19:17;;;;;;;27.23;12.10;;;;;;;;;;5138537;27;20042;-68
2023/03/20 05:21:43;;;;;;;36.50;15.30;;;;;;;;;;5100974;27;20369;-68
2023/03/20 05:24:09;;;;;;;32.13;13.95;;;;;;;;;;5118315;27;20031;-68
2023/03/20 05:26:35;;;;;;;37.78;14.95;;;;;;;;;;5117832;27;20479;-69
2023/03/20 05:29:01;;;;;;;36.42;14.30;;;;;;;;;;5117818;27;20112;-69
2023/03/20 05:31:27;;;;;;;32.67;14.30;;;;;;;;;;5101453;27;20030;-69
2023/03/20 05:33:53;;;;;;;35.60;14.85;;;;;;;;;;5117991;27;20046;-68
2023/03/20 05:36:19;;;;;;;39.97;15.95;;;;;;;;;;5117881;27;20046;-68
2023/03/20 05:38:45;;;;;;;36.15;14.70;;;;;;;;;;5117560;27;20078;-68
2023/03/20 05:41:12;;;;;;;37.30;15.20;;;;;;;;;;5117556;27;20035;-68
2023/03/20 05:43:38;;;;;;;44.03;16.83;;;;;;;;;;5119748;27;20483;-68
2023/03/20 05:46:04;;;;;;;49.28;18.60;;;;;;;;;;5096922;27;20440;-68
2023/03/20 05:48:30;;;;;;;35.97;16.77;;;;;;;;;;5118381;27;20601;-68
2023/03/20 05:50:56;;;;;;;42.92;17.25;;;;;;;;;;5101917;27;20051;-68
2023/03/20 05:53:22;;;;;;;40.63;16.92;;;;;;;;;;5101755;27;20130;-68
2023/03/20 05:55:49;;;;;;;41.60;17.55;;;;;;;;;;5153654;27;20435;-68
2023/03/20 05:58:15;;;;;;;44.20;17.80;;;;;;;;;;5153083;27;20043;-68
2023/03/20 06:00:41;;;;;;;44.83;17.40;;;;;;;;;;5153108;27;20043;-68
2023/03/20 06:03:07;;;;;;;42.38;16.00;;;;;;;;;;5151752;27;20062;-68
2023/03/20 06:05:34;;;;;;;33.80;16.55;;;;;;;;;;5151441;27;20043;-68
2023/03/20 06:08:00;;;;;;;40.05;16.38;;;;;;;;;;5117146;28;20043;-68
2023/03/20 06:10:26;;;;;;;40.00;17.33;;;;;;;;;;5117032;28;20372;-68
2023/03/20 06:12:53;;;;;;;37.45;17.30;;;;;;;;;;5116814;28;20043;-68
2023/03/20 06:15:19;;;;;;;36.67;16.73;;;;;;;;;;5116552;28;20043;-68
2023/03/20 06:17:45;;;;;;;39.97;16.10;;;;;;;;;;5099690;27;20039;-68
2023/03/20 06:20:11;;;;;;;38.03;16.15;;;;;;;;;;5099481;28;20074;-67
2023/03/20 06:22:37;;;;;;;36.70;15.10;;;;;;;;;;5117108;28;20039;-68
2023/03/20 06:25:04;;;;;;;37.22;16.50;;;;;;;;;;5116493;28;20043;-68
2023/03/20 06:27:30;;;;;;;40.72;16.15;;;;;;;;;;5108478;28;20031;-69
2023/03/20 06:29:56;;;;;;;40.50;16.08;;;;;;;;;;5116032;28;20035;-68
2023/03/20 06:32:22;;;;;;;34.97;16.25;;;;;;;;;;5091034;28;20023;-68
2023/03/20 06:34:48;;;;;;;39.88;16.65;;;;;;;;;;5116391;28;20035;-68
2023/03/20 06:37:15;;;;;;;44.03;17.10;;;;;;;;;;5113262;28;20054;-67
2023/03/20 06:39:41;;;;;;;43.78;16.55;;;;;;;;;;5115515;28;20042;-68
2023/03/20 06:42:07;;;;;;;44.13;16.58;;;;;;;;;;5115993;28;20481;-68
2023/03/20 06:44:33;;;;;;;37.90;15.48;;;;;;;;;;5115840;28;20386;-68
2023/03/20 06:47:00;;;;;;;32.00;15.13;;;;;;;;;;5093157;27;20084;-68
2023/03/20 06:49:26;;;;;;;34.53;15.73;;;;;;;;;;5096234;28;20039;-68
2023/03/20 06:51:52;;;;;;;40.67;15.75;;;;;;;;;;5098784;28;20092;-68
2023/03/20 06:54:19;;;;;;;39.55;16.67;;;;;;;;;;5090993;28;20365;-67
2023/03/20 06:56:45;;;;;;;35.03;14.35;;;;;;;;;;5115970;28;20123;-68
2023/03/20 06:59:11;;;;;;;37.42;16.35;;;;;;;;;;5115759;27;20042;-68
2023/03/20 07:01:38;;;;;;;31.77;15.05;;;;;;;;;;5110307;27;20042;-67
2023/03/20 07:04:04;;;;;;;31.95;15.32;;;;;;;;;;5056679;28;1117891;-68
2023/03/20 07:06:31;;;;;;;33.88;16.38;;;;;;;;;;5076437;28;20050;-68
2023/03/20 07:08:57;;;;;;;36.55;14.98;;;;;;;;;;5093218;28;20044;-68
2023/03/20 07:11:23;;;;;;;36.42;15.30;;;;;;;;;;5076188;28;20046;-69
2023/03/20 07:13:49;;;;;;;32.55;15.32;;;;;;;;;;5092872;28;20044;-68
2023/03/20 07:16:15;;;;;;;30.50;15.07;;;;;;;;;;5093009;28;20048;-68
2023/03/20 07:18:42;;;;;;;44.88;15.85;;;;;;;;;;5058094;28;20119;-67
2023/03/20 07:21:08;;;;;;;30.38;14.52;;;;;;;;;;5058996;28;20028;-67
2023/03/20 07:23:35;;;;;;;34.63;15.38;;;;;;;;;;5092983;28;20105;-67
2023/03/20 07:26:02;;;;;;;36.42;15.50;;;;;;;;;;5076188;28;20046;-67
2023/03/20 07:28:28;;;;;;;30.70;15.07;;;;;;;;;;5093430;28;20050;-68
2023/03/20 07:30:55;;;;;;;35.67;15.07;;;;;;;;;;5075909;28;20048;-68
2023/03/20 07:33:21;;;;;;;30.48;14.98;;;;;;;;;;5093062;28;20391;-68
2023/03/20 07:35:51;;;;;;;34.88;15.15;;;;;;;;;;5092910;28;20119;-68
2023/03/20 07:38:17;;;;;;;31.52;14.50;;;;;;;;;;5092408;28;20047;-68
2023/03/20 07:40:43;;;;;;;44.13;15.93;;;;;;;;;;5092597;28;20040;-68
2023/03/20 07:43:09;;;;;;;37.03;14.82;;;;;;;;;;5092284;28;20060;-68
2023/03/20 07:45:35;;;;;;;40.90;15.75;;;;;;;;;;5075769;28;20109;-68
2023/03/20 07:48:01;;;;;;;37.40;16.90;;;;;;;;;;5075761;28;20036;-68
2023/03/20 07:50:27;;;;;;;39.88;15.63;;;;;;;;;;5092156;28;20036;-68
2023/03/20 07:52:53;;;;;;;37.85;15.90;;;;;;;;;;5092435;28;20082;-68
2023/03/20 07:55:19;;;;;;;29.95;14.40;;;;;;;;;;5093363;28;20048;-68
2023/03/20 07:57:48;;;;;;;35.22;14.02;;;;;;;;;;5092711;28;20102;-68
2023/03/20 08:00:15;;;;;;;31.48;14.98;;;;;;;;;;5092232;28;20032;-68
2023/03/20 08:02:41;;;;;;;30.35;14.93;;;;;;;;;;5091024;28;20040;-68
2023/03/20 08:05:08;;;;;;;32.90;15.25;;;;;;;;;;5101035;28;20059;-68
2023/03/20 08:07:34;;;;;;;30.48;14.20;;;;;;;;;;5092678;28;20047;-68
2023/03/20 08:10:01;;;;;;;34.85;15.35;;;;;;;;;;5106431;28;20050;-68
2023/03/20 08:12:27;;;;;;;31.35;14.18;;;;;;;;;;5112498;28;20460;-68
2023/03/20 08:14:53;;;;;;;32.05;13.93;;;;;;;;;;5112520;28;20101;-68
2023/03/20 08:17:19;;;;;;;42.38;15.50;;;;;;;;;;5112341;28;20051;-68
2023/03/20 08:19:46;;;;;;;29.83;13.60;;;;;;;;;;5111401;28;20036;-68
2023/03/20 08:22:12;;;;;;;37.38;13.52;;;;;;;;;;5111679;28;20479;-69
2023/03/20 08:24:38;;;;;;;28.98;14.10;;;;;;;;;;5094736;28;20529;-69
2023/03/20 08:27:04;;;;;;;32.45;14.80;;;;;;;;;;5111646;28;20039;-68
2023/03/20 08:29:30;;;;;;;24.92;13.45;;;;;;;;;;5111552;28;20077;-69
2023/03/20 08:31:57;;;;;;;28.08;13.90;;;;;;;;;;5090472;28;20050;-68
2023/03/20 08:34:23;;;;;;;29.00;13.82;;;;;;;;;;5111766;28;20040;-68
2023/03/20 08:36:49;;;;;;;34.08;14.70;;;;;;;;;;5094266;28;20418;-68
2023/03/20 08:39:15;;;;;;;32.92;14.80;;;;;;;;;;5111454;28;20066;-69
2023/03/20 08:41:44;;;;;;;29.40;13.73;;;;;;;;;;5111282;28;20067;-69
2023/03/20 08:44:10;;;;;;;30.33;14.55;;;;;;;;;;5110876;28;20046;-68
2023/03/20 08:46:36;;;;;;;31.52;13.93;;;;;;;;;;5136269;27;20101;-68
2023/03/20 08:49:04;;;;;;;32.50;13.65;;;;;;;;;;5109996;28;20047;-68
2023/03/20 08:51:30;;;;;;;32.72;13.55;;;;;;;;;;5132713;27;20059;-68
2023/03/20 08:53:56;;;;;;;31.20;13.82;;;;;;;;;;5109891;28;20031;-68
2023/03/20 08:56:22;;;;;;;30.52;13.63;;;;;;;;;;5119705;28;20036;-68
2023/03/20 08:58:48;;;;;;;31.30;13.32;;;;;;;;;;5109568;28;20436;-69
2023/03/20 09:01:14;;;;;;;30.88;13.07;;;;;;;;;;5110793;28;21128;-68
2023/03/20 09:03:40;;;;;;;32.45;13.25;;;;;;;;;;5094325;28;20031;-69
2023/03/20 09:06:07;;;;;;;27.60;13.35;;;;;;;;;;5111894;28;20447;-69
2023/03/20 09:08:34;;;;;;;36.90;13.02;;;;;;;;;;5111052;28;20039;-69
2023/03/20 09:11:00;;;;;;;27.92;12.80;;;;;;;;;;5108580;28;20051;-69
2023/03/20 09:13:27;;;;;;;31.88;13.15;;;;;;;;;;5094613;28;20390;-69
2023/03/20 09:15:53;;;;;;;34.42;13.90;;;;;;;;;;5112267;28;20052;-69
2023/03/20 09:18:20;;;;;;;33.05;14.32;;;;;;;;;;5111801;28;20043;-69
2023/03/20 09:20:47;;;;;;;33.72;13.05;;;;;;;;;;5111281;28;20081;-69
2023/03/20 09:23:13;;;;;;;31.02;13.15;;;;;;;;;;5111889;28;20043;-70
2023/03/20 09:25:39;;;;;;;32.38;13.82;;;;;;;;;;5111727;28;20082;-69
2023/03/20 09:28:05;;;;;;;34.85;14.13;;;;;;;;;;5094937;28;20051;-69
2023/03/20 09:30:31;;;;;;;33.80;13.00;;;;;;;;;;5094652;28;20047;-69
2023/03/20 09:32:57;;;;;;;34.00;12.52;;;;;;;;;;5112182;28;20043;-69
2023/03/20 09:35:23;;;;;;;33.75;12.75;;;;;;;;;;5111241;28;20048;-69
2023/03/20 09:37:49;;;;;;;32.28;12.95;;;;;;;;;;5111767;28;20118;-70
2023/03/20 09:40:28;;;;;;;25.58;11.65;;;;;;;;;;5094580;28;20043;-69
2023/03/20 09:43:26;;;;;;;31.20;12.27;;;9.60;99.90;;;;;;5114173;28;20062;-69
2023/03/20 09:46:10;;;;;;;28.95;12.68;;;9.60;99.90;;;;;;5117772;27;20044;-69
2023/03/20 09:48:41;;;;;;;31.10;12.35;;;;;;;;;;5098634;28;20036;-69
2023/03/20 09:51:07;;;;;;;29.05;12.23;;;;;;;;;;5115360;28;20035;-70
2023/03/20 09:53:36;;;;;;;38.08;12.02;;;;;;;;;;5098360;28;20062;-69
2023/03/20 09:56:03;;;;;;;34.30;11.35;;;;;;;;;;5115116;28;20040;-69
2023/03/20 09:58:33;;;;;;;29.73;11.68;;;;;;;;;;5114599;28;20039;-69
2023/03/20 10:01:00;;;;;;;36.55;10.90;;;;;;;;;;5114763;28;20039;-69
2023/03/20 10:03:35;;;;;;;30.13;11.25;;;;;;;;;;5114988;28;20036;-69
2023/03/20 10:06:06;;;;;;;26.27;10.43;;;;;;;;;;5095821;28;20048;-69
2023/03/20 10:08:36;;;;;;;35.42;11.15;;;;;;;;;;5079450;28;20040;-69
2023/03/20 10:11:06;;;;;;;33.40;11.65;;;;;;;;;;5085653;28;20048;-69
2023/03/20 10:13:35;;;;;;;28.50;9.40;;;;;;;;;;5077981;28;20067;-69
2023/03/20 10:16:11;;;;;;;34.65;10.65;;;;;;;;;;5098684;28;20459;-69
2023/03/20 10:18:38;;;;;;;32.40;10.60;;;;;;;;;;5095942;28;20079;-69
2023/03/20 10:21:05;;;;;;;30.20;10.77;;;;;;;;;;5104478;28;20044;-69
2023/03/20 10:23:58;;;;;;;36.53;10.45;;;9.50;99.90;;;;;;5095566;28;20039;-68
2023/03/20 10:26:24;;;;;;;28.67;8.65;;;;;;;;;;5060785;28;20032;-68
2023/03/20 10:28:58;;;;;;;28.00;9.77;;;;;;;;;;5097740;28;20119;-69
2023/03/20 10:31:30;;;;;;;28.80;10.38;;;;;;;;;;5101758;28;20093;-70
2023/03/20 10:34:08;;;;;;;24.73;8.45;;;;;;;;;;5099867;28;20054;-68
2023/03/20 10:36:53;;;;;;;23.00;8.32;;;9.50;99.90;;;;;;5087209;28;20043;-69
2023/03/20 10:39:32;;;;;;;25.73;9.38;;;;;;;;;;5091282;28;20126;-69
2023/03/20 10:42:01;;;;;;;21.63;8.73;;;;;;;;;;5097668;28;20040;-71
2023/03/20 10:44:38;;;;;;;20.70;8.82;;;;;;;;;;5101288;28;20118;-69
2023/03/20 10:47:06;;;;;;;29.08;8.30;;;;;;;;;;5096600;28;20476;-69
2023/03/20 10:49:37;;;;;;;24.67;7.85;;;;;;;;;;5075969;28;20118;-69
2023/03/20 10:52:06;;;;;;;31.42;8.60;;;;;;;;;;5081031;28;20491;-69
2023/03/20 10:54:41;;;;;;;31.67;8.80;;;;;;;;;;5100595;28;20042;-69
2023/03/20 10:57:11;;;;;;;30.70;9.65;;;;;;;;;;5098094;28;20043;-68
2023/03/20 10:59:43;;;;;;;23.52;8.05;;;;;;;;;;5093178;28;20089;-70
2023/03/20 11:02:10;;;;;;;25.90;8.43;;;;;;;;;;5078986;28;20037;-69
2023/03/20 11:04:36;;;;;;;28.45;9.32;;;;;;;;;;5081287;28;20095;-69
2023/03/20 11:07:09;;;;;;;31.48;9.35;;;;;;;;;;5111725;28;20475;-69
2023/03/20 11:09:35;;;;;;;32.17;10.48;;;;;;;;;;5112170;28;20043;-70
2023/03/20 11:12:02;;;;;;;32.33;8.93;;;;;;;;;;5113635;28;20120;-70
2023/03/20 11:14:36;;;;;;;33.50;9.68;;;;;;;;;;5114051;28;20047;-69
2023/03/20 11:17:03;;;;;;;25.60;10.10;;;;;;;;;;5113651;28;20047;-69
2023/03/20 11:19:32;;;;;;;27.98;10.10;;;;;;;;;;5113569;28;20039;-69
2023/03/20 11:22:00;;;;;;;28.65;9.88;;;;;;;;;;5112970;28;20031;-69
2023/03/20 11:24:26;;;;;;;19.70;10.00;;;;;;;;;;5113376;28;20054;-69
2023/03/20 11:26:52;;;;;;;29.45;10.30;;;;;;;;;;5113269;28;20089;-70
2023/03/20 11:29:28;;;;;;;26.70;10.55;;;;;;;;;;5113871;28;20120;-69
2023/03/20 11:31:55;;;;;;;21.40;10.15;;;;;;;;;;5096283;28;20096;-69
2023/03/20 11:34:25;;;;;;;23.83;11.32;;;;;;;;;;5096886;28;20039;-69
2023/03/20 11:36:58;;;;;;;22.50;9.93;;;;;;;;;;5113527;28;20437;-69
2023/03/20 11:39:31;;;;;;;21.05;10.05;;;;;;;;;;5113096;28;20112;-69
2023/03/20 11:41:57;;;;;;;;;;;9.20;99.90;;;;;;5096401;28;20118;-69
2023/03/20 11:44:25;;;;;;;22.48;9.00;;;;;;;;;;5096382;28;19942;-69
2023/03/20 11:46:57;;;;;;;21.20;9.23;;;;;;;;;;5112621;28;20065;-69
2023/03/20 11:49:24;;;;;;;19.15;9.35;;;;;;;;;;5095789;28;20042;-69
2023/03/20 11:51:52;;;;;;;21.27;9.05;;;;;;;;;;5112848;28;20076;-69
2023/03/20 11:54:20;;;;;;;21.02;9.75;;;;;;;;;;5113317;28;20043;-69
2023/03/20 11:56:53;;;;;;;14.02;8.55;;;;;;;;;;5112159;28;20133;-69
2023/03/20 11:59:19;;;;;;;19.90;9.57;;;;;;;;;;5112640;28;20048;-69
2023/03/20 12:01:48;;;;;;;21.42;11.43;;;;;;;;;;5095846;28;20080;-69
2023/03/20 12:04:18;;;;;;;20.33;11.32;;;;;;;;;;5098667;27;20471;-69
2023/03/20 12:06:48;;;;;;;18.60;11.13;;;;;;;;;;5098905;27;20031;-69
2023/03/20 12:09:20;;;;;;;20.33;11.38;;;;;;;;;;5116078;27;20051;-68
2023/03/20 12:11:46;;;;;;;21.15;11.07;;;;;;;;;;5116288;27;20467;-68
2023/03/20 12:14:17;;;;;;;17.58;10.40;;;;;;;;;;5115424;27;20035;-68
2023/03/20 12:16:43;;;;;;;17.38;10.88;;;;;;;;;;5115769;27;20129;-68
2023/03/20 12:19:13;;;;;;;19.30;11.13;;;;;;;;;;5115823;27;20047;-68
2023/03/20 12:21:42;;;;;;;18.27;11.45;;;;;;;;;;5115267;27;20143;-68
2023/03/20 12:24:30;;;;;;;18.05;11.27;;;;;;;;;;5115954;27;20035;-69
2023/03/20 12:27:19;;;;;;;20.55;12.25;;;;;;;;;;5115906;27;20027;-68
2023/03/20 12:29:49;;;;;;;22.02;11.63;;;;;;;;;;5114538;27;20035;-68
2023/03/20 12:32:25;;;;;;;19.70;11.80;;;;;;;;;;5115596;27;20035;-68
2023/03/20 12:34:54;;;;;;;18.17;11.73;;;;;;;;;;5115539;27;20042;-68
2023/03/20 12:37:21;;;;;;;19.55;11.10;;;;;;;;;;5115740;27;20043;-68
2023/03/20 12:39:56;;;;;;;17.63;11.63;;;;;;;;;;5113669;27;20043;-68
2023/03/20 12:42:35;;;;;;;17.40;11.40;;;;;;;;;;5095523;28;20042;-68
2023/03/20 12:45:11;;;;;;;17.92;11.15;;;;;;;;;;5098590;27;20039;-68
2023/03/20 12:47:56;;;;;;;15.93;11.45;;;;;;;;;;5115487;28;20036;-68
2023/03/20 12:50:37;;;;;;;16.52;11.02;;;;;;;;;;5115293;28;20091;-68
2023/03/20 12:53:12;;;;;;;18.15;10.68;;;;;;;;;;5098518;28;20057;-68
2023/03/20 12:55:41;;;;;;;15.75;10.50;;;;;;;;;;5115230;28;20039;-68
2023/03/20 12:58:18;;;;;;;19.70;11.27;;;;;;;;;;5115461;28;20035;-68
2023/03/20 13:01:05;;;;;;;18.13;10.75;;;;;;;;;;5098248;28;20031;-68
2023/03/20 13:03:50;;;;;;;14.93;10.60;;;;;;;;;;5098554;28;20035;-68
2023/03/20 13:06:16;;;;;;;16.30;12.00;;;;;;;;;;5084849;28;20049;-68
2023/03/20 13:08:42;;;;;;;18.33;10.70;;;;;;;;;;5096307;28;20048;-68
2023/03/20 13:11:13;;;;;;;21.13;11.23;;;;;;;;;;5110614;28;20039;-68
2023/03/20 13:13:54;;;;;;;15.70;11.35;;;;;;;;;;5091871;28;20036;-70
2023/03/20 13:16:27;;;;;;;15.95;10.48;;;;;;;;;;5091568;28;20434;-68
2023/03/20 13:19:02;;;;;;;15.68;10.85;;;;;;;;;;5095210;28;20528;-68
2023/03/20 13:22:04;;;;;;;13.23;10.38;;;;;;;;;;5095260;28;20036;-70
2023/03/20 13:24:39;;;;;;;14.68;9.73;;;;;;;;;;5001522;28;20037;-68
2023/03/20 13:27:11;;;;;;;13.50;10.27;;;;;;;;;;5067128;28;20051;-68
2023/03/20 13:29:54;;;;;;;12.45;9.52;;;;;;;;;;5095125;28;20047;-68
2023/03/20 13:32:20;;;;;;;14.45;10.38;;;;;;;;;;5075128;28;20079;-68
2023/03/20 13:34:46;;;;;;;13.07;9.60;;;;;;;;;;5058652;28;20485;-68
2023/03/20 13:37:18;;;;;;;12.32;9.57;;;;;;;;;;5094312;28;20039;-68
2023/03/20 13:40:21;;;;;;;12.73;9.48;;;9.30;99.90;;;;;;5094842;28;20434;-69
2023/03/20 13:42:50;;;;;;;13.27;9.38;;;;;;;;;;5091673;28;20131;-68
2023/03/20 13:45:36;;;;;;;12.60;9.32;;;;;;;;;;5089938;28;20032;-68
2023/03/20 13:48:21;;;;;;;14.25;9.77;;;;;;;;;;5094897;28;20050;-68
2023/03/20 13:50:58;;;;;;;13.70;9.63;;;;;;;;;;5094722;28;20036;-68
2023/03/20 13:53:43;;;;;;;15.73;10.55;;;;;;;;;;5111770;28;20040;-68
2023/03/20 13:56:22;;;;;;;15.43;10.18;;;;;;;;;;5082506;28;20047;-67
2023/03/20 13:59:02;;;;;;;15.00;10.02;;;;;;;;;;5094090;28;20496;-68
2023/03/20 14:01:38;;;;;;;14.20;10.32;;;;;;;;;;5092323;28;20040;-68
2023/03/20 14:04:07;;;;;;;14.10;10.27;;;;;;;;;;5092340;28;20499;-67
2023/03/20 14:06:34;;;;;;;17.85;11.35;;;;;;;;;;5116475;27;20119;-70
2023/03/20 14:09:00;;;;;;;15.13;10.50;;;;;;;;;;5118321;27;20121;-68
2023/03/20 14:11:34;;;;;;;15.73;11.40;;;;;;;;;;5117870;27;20042;-68
2023/03/20 14:14:45;;;;;;;14.38;10.90;;;9.10;99.90;;;;;;5118469;27;20490;-68
2023/03/20 14:17:11;;;;;;;20.02;11.23;;;;;;;;;;5015625;28;20326;-68
2023/03/20 14:19:38;;;;;;;17.27;11.35;;;;;;;;;;5103879;27;20096;-68
2023/03/20 14:22:04;;;;;;;19.73;11.45;;;;;;;;;;5121086;27;20035;-68
2023/03/20 14:24:35;;;;;;;18.63;12.90;;;;;;;;;;5138755;27;20034;-68
2023/03/20 14:27:01;;;;;;;17.35;11.43;;;;;;;;;;5138307;27;20035;-68
2023/03/20 14:29:32;;;;;;;15.30;10.43;;;;;;;;;;5138714;27;20074;-68
2023/03/20 14:32:13;;;;;;;19.15;10.65;;;;;;;;;;5138677;27;20054;-68
2023/03/20 14:34:58;;;;;;;15.02;11.15;;;;;;;;;;5138681;27;20046;-68